sensor_id;sensor_type;location;lat;lon;timestamp;P1;durP1;ratioP1;P2;durP2;ratioP2
26822;SDS011;14852;51.910;8.878;2022-11-15T00:00:13;7.20;;;4.63;;
26822;SDS011;14852;51.910;8.878;2022-11-15T00:02:58;5.28;;;3.95;;
26822;SDS011;14852;51.910;8.878;2022-11-15T00:05:42;5.18;;;3.50;;
26822;SDS011;14852;51.910;8.878;2022-11-15T00:08:28;6.00;;;4.10;;
26822;SDS011;14852;51.910;8.878;2022-11-15T00:11:14;5.30;;;3.60;;
26822;SDS011;14852;51.910;8.878;2022-11-15T00:13:59;5.38;;;3.58;;
26822;SDS011;14852;51.910;8.878;2022-11-15T00:16:46;5.50;;;4.15;;
26822;SDS011;14852;51.910;8.878;2022-11-15T00:19:30;5.63;;;3.50;;
26822;SDS011;14852;51.910;8.878;2022-11-15T00:22:15;6.07;;;3.75;;
26822;SDS011;14852;51.910;8.878;2022-11-15T00:24:59;6.90;;;4.00;;
26822;SDS011;14852;51.910;8.878;2022-11-15T00:27:44;5.68;;;4.50;;
26822;SDS011;14852;51.910;8.878;2022-11-15T00:30:28;5.57;;;4.63;;
26822;SDS011;14852;51.910;8.878;2022-11-15T00:33:13;5.50;;;4.30;;
26822;SDS011;14852;51.910;8.878;2022-11-15T00:36:16;7.13;;;5.93;;
26822;SDS011;14852;51.910;8.878;2022-11-15T00:39:02;6.80;;;6.05;;
26822;SDS011;14852;51.910;8.878;2022-11-15T00:41:49;7.88;;;7.05;;
26822;SDS011;14852;51.910;8.878;2022-11-15T00:44:33;8.70;;;6.88;;
26822;SDS011;14852;51.910;8.878;2022-11-15T00:47:18;11.70;;;7.82;;
26822;SDS011;14852;51.910;8.878;2022-11-15T00:50:02;8.40;;;7.18;;
26822;SDS011;14852;51.910;8.878;2022-11-15T00:52:48;8.40;;;7.20;;
26822;SDS011;14852;51.910;8.878;2022-11-15T00:55:32;10.80;;;7.90;;
26822;SDS011;14852;51.910;8.878;2022-11-15T00:58:17;10.55;;;7.53;;
26822;SDS011;14852;51.910;8.878;2022-11-15T01:01:08;7.85;;;6.97;;
26822;SDS011;14852;51.910;8.878;2022-11-15T01:03:55;9.13;;;6.70;;
26822;SDS011;14852;51.910;8.878;2022-11-15T01:06:39;11.32;;;7.45;;
26822;SDS011;14852;51.910;8.878;2022-11-15T01:09:24;8.00;;;7.20;;
26822;SDS011;14852;51.910;8.878;2022-11-15T01:12:08;7.63;;;6.53;;
26822;SDS011;14852;51.910;8.878;2022-11-15T01:14:53;9.52;;;7.30;;
26822;SDS011;14852;51.910;8.878;2022-11-15T01:17:37;7.82;;;7.03;;
26822;SDS011;14852;51.910;8.878;2022-11-15T01:20:22;7.78;;;6.97;;
26822;SDS011;14852;51.910;8.878;2022-11-15T01:23:06;7.70;;;6.90;;
26822;SDS011;14852;51.910;8.878;2022-11-15T01:25:51;12.50;;;7.43;;
26822;SDS011;14852;51.910;8.878;2022-11-15T01:28:36;8.38;;;7.38;;
26822;SDS011;14852;51.910;8.878;2022-11-15T01:31:23;10.00;;;8.95;;
26822;SDS011;14852;51.910;8.878;2022-11-15T01:34:07;13.00;;;9.43;;
26822;SDS011;14852;51.910;8.878;2022-11-15T01:36:52;10.90;;;8.40;;
26822;SDS011;14852;51.910;8.878;2022-11-15T01:39:36;10.60;;;8.75;;
26822;SDS011;14852;51.910;8.878;2022-11-15T01:42:21;13.55;;;8.98;;
26822;SDS011;14852;51.910;8.878;2022-11-15T01:45:07;13.25;;;8.93;;
26822;SDS011;14852;51.910;8.878;2022-11-15T01:47:59;10.93;;;7.93;;
26822;SDS011;14852;51.910;8.878;2022-11-15T01:50:44;11.75;;;8.75;;
26822;SDS011;14852;51.910;8.878;2022-11-15T01:53:28;9.90;;;8.02;;
26822;SDS011;14852;51.910;8.878;2022-11-15T01:56:17;10.93;;;9.15;;
26822;SDS011;14852;51.910;8.878;2022-11-15T01:59:06;11.02;;;9.13;;
26822;SDS011;14852;51.910;8.878;2022-11-15T02:01:51;14.10;;;11.70;;
26822;SDS011;14852;51.910;8.878;2022-11-15T02:04:41;11.57;;;10.10;;
26822;SDS011;14852;51.910;8.878;2022-11-15T02:07:30;10.93;;;9.85;;
26822;SDS011;14852;51.910;8.878;2022-11-15T02:10:19;16.52;;;11.52;;
26822;SDS011;14852;51.910;8.878;2022-11-15T02:13:05;14.20;;;10.20;;
26822;SDS011;14852;51.910;8.878;2022-11-15T02:25:53;13.77;;;8.20;;
26822;SDS011;14852;51.910;8.878;2022-11-15T02:32:06;9.80;;;7.40;;
26822;SDS011;14852;51.910;8.878;2022-11-15T02:35:07;14.27;;;8.88;;
26822;SDS011;14852;51.910;8.878;2022-11-15T02:41:20;8.45;;;7.13;;
26822;SDS011;14852;51.910;8.878;2022-11-15T02:44:31;8.15;;;6.65;;
26822;SDS011;14852;51.910;8.878;2022-11-15T02:47:23;12.55;;;7.72;;
26822;SDS011;14852;51.910;8.878;2022-11-15T02:50:12;11.10;;;7.50;;
26822;SDS011;14852;51.910;8.878;2022-11-15T02:53:01;9.15;;;8.13;;
26822;SDS011;14852;51.910;8.878;2022-11-15T02:55:46;8.88;;;7.22;;
26822;SDS011;14852;51.910;8.878;2022-11-15T02:58:39;10.52;;;8.40;;
26822;SDS011;14852;51.910;8.878;2022-11-15T03:11:47;10.55;;;7.10;;
26822;SDS011;14852;51.910;8.878;2022-11-15T03:17:51;10.10;;;7.10;;
26822;SDS011;14852;51.910;8.878;2022-11-15T03:20:43;9.18;;;7.28;;
26822;SDS011;14852;51.910;8.878;2022-11-15T03:23:29;8.80;;;6.05;;
26822;SDS011;14852;51.910;8.878;2022-11-15T03:26:16;11.65;;;7.63;;
26822;SDS011;14852;51.910;8.878;2022-11-15T03:29:17;8.82;;;6.95;;
26822;SDS011;14852;51.910;8.878;2022-11-15T03:32:07;13.40;;;6.68;;
26822;SDS011;14852;51.910;8.878;2022-11-15T03:35:04;7.57;;;6.22;;
26822;SDS011;14852;51.910;8.878;2022-11-15T03:41:00;8.65;;;7.65;;
26822;SDS011;14852;51.910;8.878;2022-11-15T03:46:55;9.02;;;7.25;;
26822;SDS011;14852;51.910;8.878;2022-11-15T03:49:59;12.18;;;7.22;;
26822;SDS011;14852;51.910;8.878;2022-11-15T03:52:51;20.23;;;8.63;;
26822;SDS011;14852;51.910;8.878;2022-11-15T03:55:38;9.88;;;6.97;;
26822;SDS011;14852;51.910;8.878;2022-11-15T03:58:23;9.18;;;7.15;;
26822;SDS011;14852;51.910;8.878;2022-11-15T04:01:07;9.55;;;7.45;;
26822;SDS011;14852;51.910;8.878;2022-11-15T04:03:52;9.75;;;7.55;;
26822;SDS011;14852;51.910;8.878;2022-11-15T04:06:37;9.02;;;7.00;;
26822;SDS011;14852;51.910;8.878;2022-11-15T04:09:21;11.15;;;8.27;;
26822;SDS011;14852;51.910;8.878;2022-11-15T04:12:06;8.45;;;6.72;;
26822;SDS011;14852;51.910;8.878;2022-11-15T04:14:50;9.18;;;7.97;;
26822;SDS011;14852;51.910;8.878;2022-11-15T04:17:51;11.57;;;8.45;;
26822;SDS011;14852;51.910;8.878;2022-11-15T04:20:39;9.60;;;8.60;;
26822;SDS011;14852;51.910;8.878;2022-11-15T04:23:42;9.80;;;8.30;;
26822;SDS011;14852;51.910;8.878;2022-11-15T04:26:38;11.90;;;8.65;;
26822;SDS011;14852;51.910;8.878;2022-11-15T04:29:23;13.05;;;8.38;;
26822;SDS011;14852;51.910;8.878;2022-11-15T04:32:19;11.75;;;8.68;;
26822;SDS011;14852;51.910;8.878;2022-11-15T04:35:04;11.32;;;9.20;;
26822;SDS011;14852;51.910;8.878;2022-11-15T04:37:48;12.38;;;8.82;;
26822;SDS011;14852;51.910;8.878;2022-11-15T04:40:33;13.20;;;9.57;;
26822;SDS011;14852;51.910;8.878;2022-11-15T04:43:18;10.43;;;7.68;;
26822;SDS011;14852;51.910;8.878;2022-11-15T04:46:03;20.83;;;9.32;;
26822;SDS011;14852;51.910;8.878;2022-11-15T04:48:47;24.52;;;9.88;;
26822;SDS011;14852;51.910;8.878;2022-11-15T04:51:33;10.07;;;8.10;;
26822;SDS011;14852;51.910;8.878;2022-11-15T04:54:17;10.57;;;9.23;;
26822;SDS011;14852;51.910;8.878;2022-11-15T04:57:02;11.20;;;8.45;;
26822;SDS011;14852;51.910;8.878;2022-11-15T04:59:55;8.40;;;6.70;;
26822;SDS011;14852;51.910;8.878;2022-11-15T05:02:40;10.93;;;7.35;;
26822;SDS011;14852;51.910;8.878;2022-11-15T05:05:43;9.10;;;7.25;;
26822;SDS011;14852;51.910;8.878;2022-11-15T05:08:27;8.50;;;6.75;;
26822;SDS011;14852;51.910;8.878;2022-11-15T05:11:12;9.95;;;7.00;;
26822;SDS011;14852;51.910;8.878;2022-11-15T05:13:57;8.00;;;6.40;;
26822;SDS011;14852;51.910;8.878;2022-11-15T05:16:41;7.50;;;5.97;;
26822;SDS011;14852;51.910;8.878;2022-11-15T05:19:26;7.82;;;6.82;;
26822;SDS011;14852;51.910;8.878;2022-11-15T05:22:11;7.35;;;5.38;;
26822;SDS011;14852;51.910;8.878;2022-11-15T05:24:55;7.20;;;6.28;;
26822;SDS011;14852;51.910;8.878;2022-11-15T05:27:40;7.95;;;5.57;;
26822;SDS011;14852;51.910;8.878;2022-11-15T05:30:24;6.65;;;5.70;;
26822;SDS011;14852;51.910;8.878;2022-11-15T05:33:09;7.28;;;4.70;;
26822;SDS011;14852;51.910;8.878;2022-11-15T05:36:01;7.90;;;5.13;;
26822;SDS011;14852;51.910;8.878;2022-11-15T05:39:08;6.00;;;5.40;;
26822;SDS011;14852;51.910;8.878;2022-11-15T05:42:15;7.25;;;4.93;;
26822;SDS011;14852;51.910;8.878;2022-11-15T05:44:58;6.93;;;5.00;;
26822;SDS011;14852;51.910;8.878;2022-11-15T05:47:45;6.07;;;5.45;;
26822;SDS011;14852;51.910;8.878;2022-11-15T05:50:32;7.60;;;5.25;;
26822;SDS011;14852;51.910;8.878;2022-11-15T05:53:17;6.13;;;5.10;;
26822;SDS011;14852;51.910;8.878;2022-11-15T05:56:05;5.32;;;4.55;;
26822;SDS011;14852;51.910;8.878;2022-11-15T05:58:51;5.55;;;4.57;;
26822;SDS011;14852;51.910;8.878;2022-11-15T06:01:39;7.47;;;5.80;;
26822;SDS011;14852;51.910;8.878;2022-11-15T06:04:24;5.50;;;5.00;;
26822;SDS011;14852;51.910;8.878;2022-11-15T06:07:08;6.70;;;4.97;;
26822;SDS011;14852;51.910;8.878;2022-11-15T06:09:53;6.15;;;4.78;;
26822;SDS011;14852;51.910;8.878;2022-11-15T06:12:37;5.22;;;4.72;;
26822;SDS011;14852;51.910;8.878;2022-11-15T06:15:22;6.13;;;4.57;;
26822;SDS011;14852;51.910;8.878;2022-11-15T06:18:06;4.55;;;3.95;;
26822;SDS011;14852;51.910;8.878;2022-11-15T06:20:51;6.07;;;4.88;;
26822;SDS011;14852;51.910;8.878;2022-11-15T06:23:36;4.72;;;4.20;;
26822;SDS011;14852;51.910;8.878;2022-11-15T06:26:20;6.40;;;4.47;;
26822;SDS011;14852;51.910;8.878;2022-11-15T06:29:05;6.07;;;4.55;;
26822;SDS011;14852;51.910;8.878;2022-11-15T06:31:49;5.00;;;4.47;;
26822;SDS011;14852;51.910;8.878;2022-11-15T06:34:34;5.85;;;4.07;;
26822;SDS011;14852;51.910;8.878;2022-11-15T06:37:19;5.45;;;4.25;;
26822;SDS011;14852;51.910;8.878;2022-11-15T06:40:04;5.07;;;4.00;;
26822;SDS011;14852;51.910;8.878;2022-11-15T06:42:50;5.55;;;4.35;;
26822;SDS011;14852;51.910;8.878;2022-11-15T06:45:34;6.35;;;4.15;;
26822;SDS011;14852;51.910;8.878;2022-11-15T06:48:19;7.65;;;4.57;;
26822;SDS011;14852;51.910;8.878;2022-11-15T06:51:04;7.03;;;4.68;;
26822;SDS011;14852;51.910;8.878;2022-11-15T06:53:48;6.20;;;5.47;;
26822;SDS011;14852;51.910;8.878;2022-11-15T06:56:33;4.97;;;4.05;;
26822;SDS011;14852;51.910;8.878;2022-11-15T06:59:18;5.00;;;4.07;;
26822;SDS011;14852;51.910;8.878;2022-11-15T07:02:03;5.05;;;4.10;;
26822;SDS011;14852;51.910;8.878;2022-11-15T07:04:47;5.03;;;3.97;;
26822;SDS011;14852;51.910;8.878;2022-11-15T07:07:32;5.70;;;4.35;;
26822;SDS011;14852;51.910;8.878;2022-11-15T07:10:16;4.35;;;3.53;;
26822;SDS011;14852;51.910;8.878;2022-11-15T07:13:01;4.47;;;3.72;;
26822;SDS011;14852;51.910;8.878;2022-11-15T07:15:45;5.38;;;3.80;;
26822;SDS011;14852;51.910;8.878;2022-11-15T07:18:30;4.40;;;3.30;;
26822;SDS011;14852;51.910;8.878;2022-11-15T07:21:17;4.80;;;3.67;;
26822;SDS011;14852;51.910;8.878;2022-11-15T07:24:01;3.53;;;3.22;;
26822;SDS011;14852;51.910;8.878;2022-11-15T07:26:47;6.65;;;3.80;;
26822;SDS011;14852;51.910;8.878;2022-11-15T07:29:32;4.45;;;3.97;;
26822;SDS011;14852;51.910;8.878;2022-11-15T07:32:17;7.43;;;4.10;;
26822;SDS011;14852;51.910;8.878;2022-11-15T07:35:01;4.13;;;3.35;;
26822;SDS011;14852;51.910;8.878;2022-11-15T07:37:53;6.43;;;3.63;;
26822;SDS011;14852;51.910;8.878;2022-11-15T07:40:42;5.10;;;3.17;;
26822;SDS011;14852;51.910;8.878;2022-11-15T07:43:27;4.32;;;3.10;;
26822;SDS011;14852;51.910;8.878;2022-11-15T07:46:12;9.85;;;4.40;;
26822;SDS011;14852;51.910;8.878;2022-11-15T07:48:56;3.97;;;2.60;;
26822;SDS011;14852;51.910;8.878;2022-11-15T07:51:41;4.88;;;2.97;;
26822;SDS011;14852;51.910;8.878;2022-11-15T07:54:25;3.33;;;2.90;;
26822;SDS011;14852;51.910;8.878;2022-11-15T07:57:11;4.10;;;3.55;;
26822;SDS011;14852;51.910;8.878;2022-11-15T07:59:56;3.00;;;2.40;;
26822;SDS011;14852;51.910;8.878;2022-11-15T08:02:40;3.35;;;2.53;;
26822;SDS011;14852;51.910;8.878;2022-11-15T08:05:25;3.90;;;2.90;;
26822;SDS011;14852;51.910;8.878;2022-11-15T08:08:12;4.20;;;2.80;;
26822;SDS011;14852;51.910;8.878;2022-11-15T08:10:57;2.90;;;2.58;;
26822;SDS011;14852;51.910;8.878;2022-11-15T08:13:42;3.40;;;2.42;;
26822;SDS011;14852;51.910;8.878;2022-11-15T08:16:27;2.85;;;2.55;;
26822;SDS011;14852;51.910;8.878;2022-11-15T08:19:11;3.30;;;2.45;;
26822;SDS011;14852;51.910;8.878;2022-11-15T08:21:56;3.42;;;2.20;;
26822;SDS011;14852;51.910;8.878;2022-11-15T08:24:40;3.22;;;2.45;;
26822;SDS011;14852;51.910;8.878;2022-11-15T08:27:25;2.83;;;2.50;;
26822;SDS011;14852;51.910;8.878;2022-11-15T08:30:09;2.65;;;2.45;;
26822;SDS011;14852;51.910;8.878;2022-11-15T08:32:55;2.60;;;2.38;;
26822;SDS011;14852;51.910;8.878;2022-11-15T08:35:42;3.42;;;2.65;;
26822;SDS011;14852;51.910;8.878;2022-11-15T08:38:27;2.63;;;2.08;;
26822;SDS011;14852;51.910;8.878;2022-11-15T08:41:14;3.40;;;2.80;;
26822;SDS011;14852;51.910;8.878;2022-11-15T08:44:15;2.42;;;2.03;;
26822;SDS011;14852;51.910;8.878;2022-11-15T08:47:00;2.97;;;2.13;;
26822;SDS011;14852;51.910;8.878;2022-11-15T08:49:45;3.72;;;2.70;;
26822;SDS011;14852;51.910;8.878;2022-11-15T08:52:29;3.50;;;2.97;;
26822;SDS011;14852;51.910;8.878;2022-11-15T08:55:14;2.85;;;2.38;;
26822;SDS011;14852;51.910;8.878;2022-11-15T08:57:58;4.22;;;2.30;;
26822;SDS011;14852;51.910;8.878;2022-11-15T09:00:43;3.28;;;2.17;;
26822;SDS011;14852;51.910;8.878;2022-11-15T09:03:27;2.95;;;2.30;;
26822;SDS011;14852;51.910;8.878;2022-11-15T09:06:12;2.33;;;2.13;;
26822;SDS011;14852;51.910;8.878;2022-11-15T09:08:56;2.55;;;1.95;;
26822;SDS011;14852;51.910;8.878;2022-11-15T09:11:41;3.42;;;1.90;;
26822;SDS011;14852;51.910;8.878;2022-11-15T09:14:26;2.55;;;2.00;;
26822;SDS011;14852;51.910;8.878;2022-11-15T09:17:10;2.20;;;1.75;;
26822;SDS011;14852;51.910;8.878;2022-11-15T09:19:55;2.55;;;1.95;;
26822;SDS011;14852;51.910;8.878;2022-11-15T09:22:39;2.70;;;2.20;;
26822;SDS011;14852;51.910;8.878;2022-11-15T09:25:24;2.97;;;1.83;;
26822;SDS011;14852;51.910;8.878;2022-11-15T09:28:08;3.88;;;2.08;;
26822;SDS011;14852;51.910;8.878;2022-11-15T09:31:03;2.65;;;2.40;;
26822;SDS011;14852;51.910;8.878;2022-11-15T09:33:49;3.10;;;2.40;;
26822;SDS011;14852;51.910;8.878;2022-11-15T09:36:33;3.30;;;2.30;;
26822;SDS011;14852;51.910;8.878;2022-11-15T09:39:18;2.40;;;2.15;;
26822;SDS011;14852;51.910;8.878;2022-11-15T09:45:10;2.15;;;1.95;;
26822;SDS011;14852;51.910;8.878;2022-11-15T09:51:09;2.35;;;2.15;;
26822;SDS011;14852;51.910;8.878;2022-11-15T09:54:02;2.85;;;1.67;;
26822;SDS011;14852;51.910;8.878;2022-11-15T09:56:38;2.47;;;1.58;;
26822;SDS011;14852;51.910;8.878;2022-11-15T10:05:27;2.40;;;2.00;;
26822;SDS011;14852;51.910;8.878;2022-11-15T10:08:00;1.63;;;1.52;;
26822;SDS011;14852;51.910;8.878;2022-11-15T10:11:00;3.25;;;1.90;;
26822;SDS011;14852;51.910;8.878;2022-11-15T10:13:33;2.15;;;1.70;;
26822;SDS011;14852;51.910;8.878;2022-11-15T10:16:27;2.05;;;1.80;;
26822;SDS011;14852;51.910;8.878;2022-11-15T10:19:10;2.33;;;1.70;;
26822;SDS011;14852;51.910;8.878;2022-11-15T10:22:18;5.45;;;1.92;;
26822;SDS011;14852;51.910;8.878;2022-11-15T10:27:56;2.58;;;1.70;;
26822;SDS011;14852;51.910;8.878;2022-11-15T10:30:41;2.42;;;1.75;;
26822;SDS011;14852;51.910;8.878;2022-11-15T10:41:15;2.80;;;1.90;;
26822;SDS011;14852;51.910;8.878;2022-11-15T10:44:03;2.30;;;1.70;;
26822;SDS011;14852;51.910;8.878;2022-11-15T10:46:43;4.30;;;2.05;;
26822;SDS011;14852;51.910;8.878;2022-11-15T10:49:26;1.88;;;1.70;;
26822;SDS011;14852;51.910;8.878;2022-11-15T10:51:55;4.10;;;1.60;;
26822;SDS011;14852;51.910;8.878;2022-11-15T10:54:42;2.38;;;1.90;;
26822;SDS011;14852;51.910;8.878;2022-11-15T10:57:19;2.33;;;1.95;;
26822;SDS011;14852;51.910;8.878;2022-11-15T10:59:49;2.10;;;1.58;;
26822;SDS011;14852;51.910;8.878;2022-11-15T11:02:35;1.85;;;1.52;;
26822;SDS011;14852;51.910;8.878;2022-11-15T11:13:29;1.92;;;1.52;;
26822;SDS011;14852;51.910;8.878;2022-11-15T11:18:51;1.58;;;1.35;;
26822;SDS011;14852;51.910;8.878;2022-11-15T11:21:50;1.92;;;1.60;;
26822;SDS011;14852;51.910;8.878;2022-11-15T11:33:31;2.22;;;2.00;;
26822;SDS011;14852;51.910;8.878;2022-11-15T11:48:14;2.03;;;1.73;;
26822;SDS011;14852;51.910;8.878;2022-11-15T11:51:12;2.15;;;1.60;;
26822;SDS011;14852;51.910;8.878;2022-11-15T11:53:55;1.48;;;1.38;;
26822;SDS011;14852;51.910;8.878;2022-11-15T11:56:31;1.52;;;1.38;;
26822;SDS011;14852;51.910;8.878;2022-11-15T12:02:34;2.03;;;1.60;;
26822;SDS011;14852;51.910;8.878;2022-11-15T12:05:08;3.08;;;1.38;;
26822;SDS011;14852;51.910;8.878;2022-11-15T12:11:29;3.03;;;1.95;;
26822;SDS011;14852;51.910;8.878;2022-11-15T12:14:38;2.50;;;1.63;;
26822;SDS011;14852;51.910;8.878;2022-11-15T12:17:17;2.97;;;1.98;;
26822;SDS011;14852;51.910;8.878;2022-11-15T12:19:49;3.55;;;1.88;;
26822;SDS011;14852;51.910;8.878;2022-11-15T12:27:50;2.35;;;2.05;;
26822;SDS011;14852;51.910;8.878;2022-11-15T12:30:50;2.88;;;2.10;;
26822;SDS011;14852;51.910;8.878;2022-11-15T12:33:38;3.00;;;2.30;;
26822;SDS011;14852;51.910;8.878;2022-11-15T12:41:28;2.50;;;2.08;;
26822;SDS011;14852;51.910;8.878;2022-11-15T13:02:47;2.97;;;2.58;;
26822;SDS011;14852;51.910;8.878;2022-11-15T13:33:53;3.47;;;2.40;;
26822;SDS011;14852;51.910;8.878;2022-11-15T13:36:29;2.15;;;1.88;;
26822;SDS011;14852;51.910;8.878;2022-11-15T13:41:48;1.80;;;1.60;;
26822;SDS011;14852;51.910;8.878;2022-11-15T13:44:26;3.97;;;1.88;;
26822;SDS011;14852;51.910;8.878;2022-11-15T13:47:12;4.18;;;1.92;;
26822;SDS011;14852;51.910;8.878;2022-11-15T13:49:40;2.35;;;1.73;;
26822;SDS011;14852;51.910;8.878;2022-11-15T13:52:07;3.08;;;1.70;;
26822;SDS011;14852;51.910;8.878;2022-11-15T13:57:42;2.20;;;1.55;;
26822;SDS011;14852;51.910;8.878;2022-11-15T14:03:18;2.78;;;1.60;;
26822;SDS011;14852;51.910;8.878;2022-11-15T14:08:57;3.55;;;1.60;;
26822;SDS011;14852;51.910;8.878;2022-11-15T14:11:23;2.35;;;1.55;;
26822;SDS011;14852;51.910;8.878;2022-11-15T14:16:34;1.85;;;1.40;;
26822;SDS011;14852;51.910;8.878;2022-11-15T14:19:03;2.35;;;1.60;;
26822;SDS011;14852;51.910;8.878;2022-11-15T14:21:31;2.45;;;1.58;;
26822;SDS011;14852;51.910;8.878;2022-11-15T14:26:44;1.60;;;1.30;;
26822;SDS011;14852;51.910;8.878;2022-11-15T14:29:23;2.85;;;1.38;;
26822;SDS011;14852;51.910;8.878;2022-11-15T14:31:51;2.50;;;1.40;;
26822;SDS011;14852;51.910;8.878;2022-11-15T14:34:18;2.55;;;1.60;;
26822;SDS011;14852;51.910;8.878;2022-11-15T14:36:46;2.92;;;2.28;;
26822;SDS011;14852;51.910;8.878;2022-11-15T14:39:12;2.30;;;1.38;;
26822;SDS011;14852;51.910;8.878;2022-11-15T14:41:38;1.67;;;1.20;;
26822;SDS011;14852;51.910;8.878;2022-11-15T14:44:04;2.00;;;1.30;;
26822;SDS011;14852;51.910;8.878;2022-11-15T14:46:31;2.05;;;1.58;;
26822;SDS011;14852;51.910;8.878;2022-11-15T14:48:57;2.20;;;1.48;;
26822;SDS011;14852;51.910;8.878;2022-11-15T14:51:23;2.30;;;1.75;;
26822;SDS011;14852;51.910;8.878;2022-11-15T14:53:49;1.88;;;1.40;;
26822;SDS011;14852;51.910;8.878;2022-11-15T14:56:16;3.05;;;1.70;;
26822;SDS011;14852;51.910;8.878;2022-11-15T14:58:41;4.03;;;1.95;;
26822;SDS011;14852;51.910;8.878;2022-11-15T15:01:21;1.95;;;1.45;;
26822;SDS011;14852;51.910;8.878;2022-11-15T15:06:20;2.92;;;1.30;;
26822;SDS011;14852;51.910;8.878;2022-11-15T15:08:46;1.15;;;1.08;;
26822;SDS011;14852;51.910;8.878;2022-11-15T15:11:28;2.42;;;1.45;;
26822;SDS011;14852;51.910;8.878;2022-11-15T15:13:56;2.38;;;1.50;;
26822;SDS011;14852;51.910;8.878;2022-11-15T15:16:25;2.47;;;1.65;;
26822;SDS011;14852;51.910;8.878;2022-11-15T15:18:51;2.08;;;1.70;;
26822;SDS011;14852;51.910;8.878;2022-11-15T15:21:21;1.42;;;1.33;;
26822;SDS011;14852;51.910;8.878;2022-11-15T15:23:52;3.67;;;1.80;;
26822;SDS011;14852;51.910;8.878;2022-11-15T15:26:22;2.88;;;1.80;;
26822;SDS011;14852;51.910;8.878;2022-11-15T15:28:49;1.88;;;1.55;;
26822;SDS011;14852;51.910;8.878;2022-11-15T15:31:16;3.15;;;1.63;;
26822;SDS011;14852;51.910;8.878;2022-11-15T15:33:42;2.95;;;1.77;;
26822;SDS011;14852;51.910;8.878;2022-11-15T15:36:11;2.50;;;1.58;;
26822;SDS011;14852;51.910;8.878;2022-11-15T15:38:39;2.42;;;1.63;;
26822;SDS011;14852;51.910;8.878;2022-11-15T15:41:13;3.53;;;1.90;;
26822;SDS011;14852;51.910;8.878;2022-11-15T15:43:41;2.95;;;1.55;;
26822;SDS011;14852;51.910;8.878;2022-11-15T15:46:25;2.75;;;1.60;;
26822;SDS011;14852;51.910;8.878;2022-11-15T15:48:51;3.60;;;1.95;;
26822;SDS011;14852;51.910;8.878;2022-11-15T15:51:16;3.45;;;1.70;;
26822;SDS011;14852;51.910;8.878;2022-11-15T15:53:42;2.97;;;1.75;;
26822;SDS011;14852;51.910;8.878;2022-11-15T15:56:08;2.28;;;1.60;;
26822;SDS011;14852;51.910;8.878;2022-11-15T15:58:34;3.15;;;2.08;;
26822;SDS011;14852;51.910;8.878;2022-11-15T16:01:00;2.85;;;1.77;;
26822;SDS011;14852;51.910;8.878;2022-11-15T16:03:26;4.57;;;2.22;;
26822;SDS011;14852;51.910;8.878;2022-11-15T16:05:52;4.00;;;2.00;;
26822;SDS011;14852;51.910;8.878;2022-11-15T16:08:19;3.80;;;1.88;;
26822;SDS011;14852;51.910;8.878;2022-11-15T16:10:48;2.47;;;1.65;;
26822;SDS011;14852;51.910;8.878;2022-11-15T16:13:15;3.20;;;2.13;;
26822;SDS011;14852;51.910;8.878;2022-11-15T16:15:42;3.00;;;1.73;;
26822;SDS011;14852;51.910;8.878;2022-11-15T16:18:12;3.25;;;1.88;;
26822;SDS011;14852;51.910;8.878;2022-11-15T16:20:45;3.45;;;1.80;;
26822;SDS011;14852;51.910;8.878;2022-11-15T16:23:15;2.58;;;2.08;;
26822;SDS011;14852;51.910;8.878;2022-11-15T16:28:16;2.40;;;1.70;;
26822;SDS011;14852;51.910;8.878;2022-11-15T16:30:46;2.35;;;2.10;;
26822;SDS011;14852;51.910;8.878;2022-11-15T16:33:12;2.28;;;1.80;;
26822;SDS011;14852;51.910;8.878;2022-11-15T16:35:38;3.03;;;2.10;;
26822;SDS011;14852;51.910;8.878;2022-11-15T16:38:04;2.88;;;2.05;;
26822;SDS011;14852;51.910;8.878;2022-11-15T16:40:31;2.42;;;2.00;;
26822;SDS011;14852;51.910;8.878;2022-11-15T16:43:00;4.60;;;2.20;;
26822;SDS011;14852;51.910;8.878;2022-11-15T16:45:27;5.47;;;2.40;;
26822;SDS011;14852;51.910;8.878;2022-11-15T16:47:55;4.15;;;2.42;;
26822;SDS011;14852;51.910;8.878;2022-11-15T16:50:25;6.65;;;2.08;;
26822;SDS011;14852;51.910;8.878;2022-11-15T16:52:55;3.95;;;2.47;;
26822;SDS011;14852;51.910;8.878;2022-11-15T16:55:24;3.38;;;2.00;;
26822;SDS011;14852;51.910;8.878;2022-11-15T16:57:52;2.53;;;1.80;;
26822;SDS011;14852;51.910;8.878;2022-11-15T17:00:20;4.22;;;2.67;;
26822;SDS011;14852;51.910;8.878;2022-11-15T17:02:47;3.42;;;2.17;;
26822;SDS011;14852;51.910;8.878;2022-11-15T17:05:15;5.38;;;2.53;;
26822;SDS011;14852;51.910;8.878;2022-11-15T17:07:47;3.75;;;2.75;;
26822;SDS011;14852;51.910;8.878;2022-11-15T17:10:16;4.78;;;2.60;;
26822;SDS011;14852;51.910;8.878;2022-11-15T17:12:42;4.40;;;2.72;;
26822;SDS011;14852;51.910;8.878;2022-11-15T17:15:09;6.00;;;3.30;;
26822;SDS011;14852;51.910;8.878;2022-11-15T17:17:37;3.92;;;2.80;;
26822;SDS011;14852;51.910;8.878;2022-11-15T17:20:03;3.22;;;2.50;;
26822;SDS011;14852;51.910;8.878;2022-11-15T17:22:34;3.40;;;3.00;;
26822;SDS011;14852;51.910;8.878;2022-11-15T17:25:02;4.25;;;3.22;;
26822;SDS011;14852;51.910;8.878;2022-11-15T17:27:29;3.92;;;3.00;;
26822;SDS011;14852;51.910;8.878;2022-11-15T17:29:55;2.85;;;2.30;;
26822;SDS011;14852;51.910;8.878;2022-11-15T17:32:21;3.25;;;2.38;;
26822;SDS011;14852;51.910;8.878;2022-11-15T17:34:47;3.45;;;2.50;;
26822;SDS011;14852;51.910;8.878;2022-11-15T17:37:13;3.38;;;2.20;;
26822;SDS011;14852;51.910;8.878;2022-11-15T17:39:39;3.15;;;2.35;;
26822;SDS011;14852;51.910;8.878;2022-11-15T17:42:04;2.95;;;2.50;;
26822;SDS011;14852;51.910;8.878;2022-11-15T17:44:31;3.40;;;2.55;;
26822;SDS011;14852;51.910;8.878;2022-11-15T17:46:57;4.60;;;2.40;;
26822;SDS011;14852;51.910;8.878;2022-11-15T17:49:22;3.70;;;3.00;;
26822;SDS011;14852;51.910;8.878;2022-11-15T17:51:48;3.95;;;3.38;;
26822;SDS011;14852;51.910;8.878;2022-11-15T17:54:14;4.47;;;3.20;;
26822;SDS011;14852;51.910;8.878;2022-11-15T17:56:40;3.92;;;2.90;;
26822;SDS011;14852;51.910;8.878;2022-11-15T17:59:06;3.47;;;2.83;;
26822;SDS011;14852;51.910;8.878;2022-11-15T18:01:32;3.22;;;2.60;;
26822;SDS011;14852;51.910;8.878;2022-11-15T18:04:01;4.50;;;2.45;;
26822;SDS011;14852;51.910;8.878;2022-11-15T18:06:32;3.38;;;2.90;;
26822;SDS011;14852;51.910;8.878;2022-11-15T18:08:59;3.45;;;2.70;;
26822;SDS011;14852;51.910;8.878;2022-11-15T18:11:34;3.08;;;2.33;;
26822;SDS011;14852;51.910;8.878;2022-11-15T18:14:04;3.50;;;2.25;;
26822;SDS011;14852;51.910;8.878;2022-11-15T18:16:33;2.47;;;2.05;;
26822;SDS011;14852;51.910;8.878;2022-11-15T18:19:01;3.63;;;2.70;;
26822;SDS011;14852;51.910;8.878;2022-11-15T18:21:33;3.50;;;2.50;;
26822;SDS011;14852;51.910;8.878;2022-11-15T18:24:19;4.22;;;2.88;;
26822;SDS011;14852;51.910;8.878;2022-11-15T18:26:45;4.13;;;2.28;;
26822;SDS011;14852;51.910;8.878;2022-11-15T18:29:11;2.90;;;2.17;;
26822;SDS011;14852;51.910;8.878;2022-11-15T18:31:37;3.67;;;2.58;;
26822;SDS011;14852;51.910;8.878;2022-11-15T18:34:03;2.97;;;2.30;;
26822;SDS011;14852;51.910;8.878;2022-11-15T18:36:30;4.47;;;2.40;;
26822;SDS011;14852;51.910;8.878;2022-11-15T18:38:56;2.80;;;2.40;;
26822;SDS011;14852;51.910;8.878;2022-11-15T18:41:26;4.45;;;2.42;;
26822;SDS011;14852;51.910;8.878;2022-11-15T18:43:54;2.90;;;2.10;;
26822;SDS011;14852;51.910;8.878;2022-11-15T18:46:21;3.90;;;2.53;;
26822;SDS011;14852;51.910;8.878;2022-11-15T18:48:51;3.83;;;2.10;;
26822;SDS011;14852;51.910;8.878;2022-11-15T18:51:23;3.22;;;2.33;;
26822;SDS011;14852;51.910;8.878;2022-11-15T18:53:51;6.68;;;2.70;;
26822;SDS011;14852;51.910;8.878;2022-11-15T18:56:20;4.40;;;2.40;;
26822;SDS011;14852;51.910;8.878;2022-11-15T18:58:48;3.13;;;2.58;;
26822;SDS011;14852;51.910;8.878;2022-11-15T19:01:17;3.13;;;2.67;;